Umar 1 — 9HA2498 — position and weather

sailwx.info

Track history (hours):
 
Tides and Currents Weather Stations Pressure Air Temp Water Temp Dewpoint Dewpoint Depression Visibility Wind Speed Wind Dir Waves Ship Positions

Umar 1

Last reported at 2018-Apr-16 13:48 UTC. Time now 2018-Apr-27 06:49 UTC.
Position N 27°47' W 015°07'.
Warning: this ship's position is 10 days out of date.

Length 97 m; draft 6.5 m.

Type: Ship. MMSI: 248751000.

Date/timePositionNaut miles runAvg speedWind from/ knotsBaromVisibWave heightAir tempDewpointWater temp
2018-Apr-16 13:48N 27°47' W 015°07'310.1
2018-Apr-16 13:30N 27°50' W 015°07'5 9.2
2018-Apr-16 13:00N 27°54' W 015°09'5 9.9
2018-Apr-16 12:30N 27°58' W 015°13'510.1
2018-Apr-16 12:00N 28°01' W 015°17'510.0
2018-Apr-16 11:30N 28°05' W 015°21'5 9.1
2018-Apr-16 11:00N 28°07' W 015°25'1 1.4
2018-Apr-16 10:23N 28°08' W 015°25'0 0.0
2018-Apr-16 09:56N 28°08' W 015°25'0 0.0
2018-Apr-16 09:23N 28°08' W 015°25'0 0.0
2018-Apr-16 08:53N 28°08' W 015°25'0 0.0
2018-Apr-16 08:26N 28°08' W 015°25'0 0.0
2018-Apr-16 07:53N 28°08' W 015°25'0 0.0
2018-Apr-16 07:29N 28°08' W 015°25'0 0.0
2018-Apr-16 06:59N 28°08' W 015°25'0 0.0
2018-Apr-16 06:29N 28°08' W 015°25'0 0.0
2018-Apr-16 05:59N 28°08' W 015°25'0 0.0
2018-Apr-16 05:29N 28°08' W 015°25'0 0.0
2018-Apr-16 04:59N 28°08' W 015°25'0 0.0
2018-Apr-16 04:29N 28°08' W 015°25'0 0.0
2018-Apr-16 03:59N 28°08' W 015°25'0 0.0
2018-Apr-16 03:29N 28°08' W 015°25'0 0.0
2018-Apr-16 03:01N 28°08' W 015°25'2 3.3
2018-Apr-16 02:31N 28°07' W 015°24'4 7.9
2018-Apr-16 01:59N 28°07' W 015°19'4 8.9
2018-Apr-16 01:30N 28°08' W 015°15'4 9.0
2018-Apr-16 01:01N 28°08' W 015°09'4 9.0
2018-Apr-16 00:30N 28°08' W 015°04'4 8.2
2018-Apr-16 00:00N 28°10' W 015°00'5 9.3
2018-Apr-15 23:30N 28°14' W 014°58'5 9.6
2018-Apr-15 23:01N 28°19' W 014°56'5 9.8
2018-Apr-15 22:30N 28°23' W 014°53'5 9.6
2018-Apr-15 22:00N 28°27' W 014°50'  
2018-Apr-13 02:13N 37°42' W 009°06'2 7.6
2018-Apr-13 02:01N 37°43' W 009°05'4 7.2
2018-Apr-13 01:30N 37°46' W 009°02'3 6.9
2018-Apr-13 01:01N 37°49' W 008°60'3 6.6
2018-Apr-13 00:30N 37°52' W 008°57'4 7.1
2018-Apr-13 00:00N 37°54' W 008°54'3 5.1
2018-Apr-12 23:30N 37°57' W 008°53'0 0.7
2018-Apr-12 22:59N 37°57' W 008°53'0 0.0
2018-Apr-12 22:29N 37°57' W 008°53'0 0.0
2018-Apr-12 21:59N 37°57' W 008°53'0 0.0
2018-Apr-12 21:29N 37°57' W 008°53'0 0.0
2018-Apr-12 20:59N 37°57' W 008°53'0 0.0
2018-Apr-12 20:29N 37°57' W 008°53'0 0.0
2018-Apr-12 19:59N 37°57' W 008°53'0 0.0
2018-Apr-12 19:29N 37°57' W 008°53'0 0.0
2018-Apr-12 18:59N 37°57' W 008°53'0 0.0
2018-Apr-12 18:29N 37°57' W 008°53'0 0.0
2018-Apr-12 17:59N 37°57' W 008°53'0 0.0
2018-Apr-12 17:29N 37°57' W 008°53'0 0.0
2018-Apr-12 16:59N 37°57' W 008°53'0 0.0
2018-Apr-12 16:29N 37°57' W 008°53'0 0.0
2018-Apr-12 15:59N 37°57' W 008°53'0 0.0
2018-Apr-12 15:29N 37°57' W 008°53'0 0.0
2018-Apr-12 14:59N 37°57' W 008°53'0 0.0
2018-Apr-12 14:29N 37°57' W 008°53'0 0.0
2018-Apr-12 13:59N 37°57' W 008°53'0 0.0
2018-Apr-12 13:29N 37°57' W 008°53'0 0.0
2018-Apr-12 12:59N 37°57' W 008°53'0 0.0
2018-Apr-12 12:29N 37°57' W 008°53'0 0.0
2018-Apr-12 11:59N 37°57' W 008°53'0 0.0
2018-Apr-12 11:29N 37°57' W 008°53'0 0.0
2018-Apr-12 10:59N 37°57' W 008°53'0 0.0
2018-Apr-12 10:29N 37°57' W 008°53'0 0.0
2018-Apr-12 09:59N 37°57' W 008°53'0 0.0
2018-Apr-12 09:29N 37°57' W 008°53'0 0.0
2018-Apr-12 08:59N 37°57' W 008°53'0 0.0
2018-Apr-12 08:29N 37°57' W 008°53'0 0.0
2018-Apr-12 07:59N 37°57' W 008°53'0 0.0
2018-Apr-12 07:26N 37°57' W 008°53'0 0.0
2018-Apr-12 06:59N 37°57' W 008°53'0 0.0
2018-Apr-12 06:29N 37°57' W 008°53'0 0.0
2018-Apr-12 05:59N 37°57' W 008°53'0 0.0
2018-Apr-12 05:29N 37°57' W 008°53'0 0.0
2018-Apr-12 04:59N 37°57' W 008°53'0 0.0
2018-Apr-12 04:29N 37°57' W 008°53'0 0.0
2018-Apr-12 03:59N 37°57' W 008°53'0 0.3
2018-Apr-12 03:30N 37°57' W 008°53'2 3.9
2018-Apr-12 03:00N 37°55' W 008°53'5 9.4
2018-Apr-12 02:30N 37°51' W 008°57'2 4.1
2018-Apr-12 02:01N 37°52' W 008°59'1 1.5
2018-Apr-12 01:30N 37°52' W 008°58'1 3.0
2018-Apr-12 01:01N 37°51' W 008°57'2 4.3
2018-Apr-12 00:30N 37°52' W 008°54'2 4.6
2018-Apr-12 00:01N 37°51' W 008°57'  
2018-Apr-08 07:59N 28°30' W 014°44'4 7.7
2018-Apr-08 07:30N 28°26' W 014°46'4 8.0
2018-Apr-08 07:00N 28°23' W 014°48'4 8.1
2018-Apr-08 06:30N 28°19' W 014°50'4 8.3
2018-Apr-08 06:00N 28°15' W 014°51'4 8.2
2018-Apr-08 05:30N 28°11' W 014°53'4 8.0
2018-Apr-08 05:00N 28°08' W 014°55'4 8.0
2018-Apr-08 04:30N 28°04' W 014°56'4 8.3
2018-Apr-08 04:00N 27°60' W 014°58'4 8.4
2018-Apr-08 03:31N 27°56' W 014°59'4 8.4
2018-Apr-08 03:00N 27°52' W 015°01'4 8.3
2018-Apr-08 02:30N 27°48' W 015°02'4 8.6
2018-Apr-08 02:00N 27°44' W 015°02'  
Track history (hours):
 
Tides and Currents Weather Stations Pressure Air Temp Water Temp Dewpoint Dewpoint Depression Visibility Wind Speed Wind Dir Waves Ship Positions

Umar 1

Last reported at 2018-Apr-16 13:48 UTC. Time now 2018-Apr-27 06:49 UTC.
Position N 27°47' W 015°07'.
Warning: this ship's position is 10 days out of date.

Length 97 m; draft 6.5 m.

Type: Ship. MMSI: 248751000.

Date/timePositionNaut miles runAvg speedWind from/ knotsBaromVisibWave heightAir tempDewpointWater temp
2018-Apr-16 13:48N 27°47' W 015°07'310.1
2018-Apr-16 13:30N 27°50' W 015°07'5 9.2
2018-Apr-16 13:00N 27°54' W 015°09'5 9.9
2018-Apr-16 12:30N 27°58' W 015°13'510.1
2018-Apr-16 12:00N 28°01' W 015°17'510.0
2018-Apr-16 11:30N 28°05' W 015°21'5 9.1
2018-Apr-16 11:00N 28°07' W 015°25'1 1.4
2018-Apr-16 10:23N 28°08' W 015°25'0 0.0
2018-Apr-16 09:56N 28°08' W 015°25'0 0.0
2018-Apr-16 09:23N 28°08' W 015°25'0 0.0
2018-Apr-16 08:53N 28°08' W 015°25'0 0.0
2018-Apr-16 08:26N 28°08' W 015°25'0 0.0
2018-Apr-16 07:53N 28°08' W 015°25'0 0.0
2018-Apr-16 07:29N 28°08' W 015°25'0 0.0
2018-Apr-16 06:59N 28°08' W 015°25'0 0.0
2018-Apr-16 06:29N 28°08' W 015°25'0 0.0
2018-Apr-16 05:59N 28°08' W 015°25'0 0.0
2018-Apr-16 05:29N 28°08' W 015°25'0 0.0
2018-Apr-16 04:59N 28°08' W 015°25'0 0.0
2018-Apr-16 04:29N 28°08' W 015°25'0 0.0
2018-Apr-16 03:59N 28°08' W 015°25'0 0.0
2018-Apr-16 03:29N 28°08' W 015°25'0 0.0
2018-Apr-16 03:01N 28°08' W 015°25'2 3.3
2018-Apr-16 02:31N 28°07' W 015°24'4 7.9
2018-Apr-16 01:59N 28°07' W 015°19'4 8.9
2018-Apr-16 01:30N 28°08' W 015°15'4 9.0
2018-Apr-16 01:01N 28°08' W 015°09'4 9.0
2018-Apr-16 00:30N 28°08' W 015°04'4 8.2
2018-Apr-16 00:00N 28°10' W 015°00'5 9.3
2018-Apr-15 23:30N 28°14' W 014°58'5 9.6
2018-Apr-15 23:01N 28°19' W 014°56'5 9.8
2018-Apr-15 22:30N 28°23' W 014°53'5 9.6
2018-Apr-15 22:00N 28°27' W 014°50'  
2018-Apr-13 02:13N 37°42' W 009°06'2 7.6
2018-Apr-13 02:01N 37°43' W 009°05'4 7.2
2018-Apr-13 01:30N 37°46' W 009°02'3 6.9
2018-Apr-13 01:01N 37°49' W 008°60'3 6.6
2018-Apr-13 00:30N 37°52' W 008°57'4 7.1
2018-Apr-13 00:00N 37°54' W 008°54'3 5.1
2018-Apr-12 23:30N 37°57' W 008°53'0 0.7
2018-Apr-12 22:59N 37°57' W 008°53'0 0.0
2018-Apr-12 22:29N 37°57' W 008°53'0 0.0
2018-Apr-12 21:59N 37°57' W 008°53'0 0.0
2018-Apr-12 21:29N 37°57' W 008°53'0 0.0
2018-Apr-12 20:59N 37°57' W 008°53'0 0.0
2018-Apr-12 20:29N 37°57' W 008°53'0 0.0
2018-Apr-12 19:59N 37°57' W 008°53'0 0.0
2018-Apr-12 19:29N 37°57' W 008°53'0 0.0
2018-Apr-12 18:59N 37°57' W 008°53'0 0.0
2018-Apr-12 18:29N 37°57' W 008°53'0 0.0
2018-Apr-12 17:59N 37°57' W 008°53'0 0.0
2018-Apr-12 17:29N 37°57' W 008°53'0 0.0
2018-Apr-12 16:59N 37°57' W 008°53'0 0.0
2018-Apr-12 16:29N 37°57' W 008°53'0 0.0
2018-Apr-12 15:59N 37°57' W 008°53'0 0.0
2018-Apr-12 15:29N 37°57' W 008°53'0 0.0
2018-Apr-12 14:59N 37°57' W 008°53'0 0.0
2018-Apr-12 14:29N 37°57' W 008°53'0 0.0
2018-Apr-12 13:59N 37°57' W 008°53'0 0.0
2018-Apr-12 13:29N 37°57' W 008°53'0 0.0
2018-Apr-12 12:59N 37°57' W 008°53'0 0.0
2018-Apr-12 12:29N 37°57' W 008°53'0 0.0
2018-Apr-12 11:59N 37°57' W 008°53'0 0.0
2018-Apr-12 11:29N 37°57' W 008°53'0 0.0
2018-Apr-12 10:59N 37°57' W 008°53'0 0.0
2018-Apr-12 10:29N 37°57' W 008°53'0 0.0
2018-Apr-12 09:59N 37°57' W 008°53'0 0.0
2018-Apr-12 09:29N 37°57' W 008°53'0 0.0
2018-Apr-12 08:59N 37°57' W 008°53'0 0.0
2018-Apr-12 08:29N 37°57' W 008°53'0 0.0
2018-Apr-12 07:59N 37°57' W 008°53'0 0.0
2018-Apr-12 07:26N 37°57' W 008°53'0 0.0
2018-Apr-12 06:59N 37°57' W 008°53'0 0.0
2018-Apr-12 06:29N 37°57' W 008°53'0 0.0
2018-Apr-12 05:59N 37°57' W 008°53'0 0.0
2018-Apr-12 05:29N 37°57' W 008°53'0 0.0
2018-Apr-12 04:59N 37°57' W 008°53'0 0.0
2018-Apr-12 04:29N 37°57' W 008°53'0 0.0
2018-Apr-12 03:59N 37°57' W 008°53'0 0.3
2018-Apr-12 03:30N 37°57' W 008°53'2 3.9
2018-Apr-12 03:00N 37°55' W 008°53'5 9.4
2018-Apr-12 02:30N 37°51' W 008°57'2 4.1
2018-Apr-12 02:01N 37°52' W 008°59'1 1.5
2018-Apr-12 01:30N 37°52' W 008°58'1 3.0
2018-Apr-12 01:01N 37°51' W 008°57'2 4.3
2018-Apr-12 00:30N 37°52' W 008°54'2 4.6
2018-Apr-12 00:01N 37°51' W 008°57'  
2018-Apr-08 07:59N 28°30' W 014°44'4 7.7
2018-Apr-08 07:30N 28°26' W 014°46'4 8.0
2018-Apr-08 07:00N 28°23' W 014°48'4 8.1
2018-Apr-08 06:30N 28°19' W 014°50'4 8.3
2018-Apr-08 06:00N 28°15' W 014°51'4 8.2
2018-Apr-08 05:30N 28°11' W 014°53'4 8.0
2018-Apr-08 05:00N 28°08' W 014°55'4 8.0
2018-Apr-08 04:30N 28°04' W 014°56'4 8.3
2018-Apr-08 04:00N 27°60' W 014°58'4 8.4
2018-Apr-08 03:31N 27°56' W 014°59'4 8.4
2018-Apr-08 03:00N 27°52' W 015°01'4 8.3
2018-Apr-08 02:30N 27°48' W 015°02'4 8.6
2018-Apr-08 02:00N 27°44' W 015°02'  

Dump ship's entire track history